createdAt,value
2022-11-19T00:01:27.769Z,0.10
2022-11-19T00:03:54.637Z,0.10
2022-11-19T00:06:26.771Z,0.10
2022-11-19T00:08:54.210Z,0.20
2022-11-19T00:11:41.856Z,0.30
2022-11-19T00:14:10.061Z,0.00
2022-11-19T00:16:36.877Z,0.10
2022-11-19T00:19:04.159Z,0.08
2022-11-19T00:21:31.033Z,0.10
2022-11-19T00:23:57.998Z,0.10
2022-11-19T00:26:24.733Z,0.10
2022-11-19T00:28:51.431Z,0.03
2022-11-19T00:31:18.826Z,0.10
2022-11-19T00:33:46.146Z,0.00
2022-11-19T00:36:15.352Z,0.00
2022-11-19T00:38:43.020Z,0.00
2022-11-19T00:41:09.999Z,0.10
2022-11-19T00:43:49.937Z,0.10
2022-11-19T00:46:20.730Z,0.10
2022-11-19T00:48:49.056Z,0.00
2022-11-19T00:51:17.103Z,0.00
2022-11-19T00:53:43.908Z,0.00
2022-11-19T00:56:12.800Z,0.10
2022-11-19T00:58:39.817Z,0.03
2022-11-19T01:01:07.617Z,0.10
2022-11-19T01:03:34.272Z,0.08
2022-11-19T01:06:01.262Z,0.10
2022-11-19T01:08:28.587Z,0.10
2022-11-19T01:10:55.431Z,0.10
2022-11-19T01:13:34.794Z,0.10
2022-11-19T01:16:03.905Z,0.10
2022-11-19T01:18:30.482Z,0.10
2022-11-19T01:20:57.249Z,0.10
2022-11-19T01:23:23.875Z,0.10
2022-11-19T01:25:50.472Z,0.10
2022-11-19T01:28:17.094Z,0.10
2022-11-19T01:30:44.333Z,0.03
2022-11-19T01:33:11.105Z,0.00
2022-11-19T01:35:38.067Z,0.10
2022-11-19T01:38:05.648Z,0.00
2022-11-19T01:40:33.112Z,0.10
2022-11-19T01:42:59.853Z,0.10
2022-11-19T01:45:33.818Z,0.10
2022-11-19T01:48:24.269Z,0.10
2022-11-19T01:51:04.954Z,0.10
2022-11-19T01:53:34.442Z,0.10
2022-11-19T01:56:05.827Z,0.10
2022-11-19T01:58:37.647Z,0.10
2022-11-19T02:01:05.134Z,0.10
2022-11-19T02:03:32.460Z,0.00
2022-11-19T02:06:01.763Z,0.10
2022-11-19T02:08:36.002Z,0.10
2022-11-19T02:11:17.809Z,0.10
2022-11-19T02:14:19.455Z,0.05
2022-11-19T02:17:01.305Z,0.10
2022-11-19T02:19:52.618Z,0.10
2022-11-19T02:22:26.248Z,0.10
2022-11-19T02:25:14.795Z,0.10
2022-11-19T02:28:20.227Z,0.20
2022-11-19T02:30:51.086Z,0.10
2022-11-19T02:33:36.159Z,0.15
2022-11-19T02:36:14.328Z,0.20
2022-11-19T02:38:49.537Z,0.20
2022-11-19T02:41:34.638Z,0.20
2022-11-19T02:44:45.263Z,0.20
2022-11-19T02:47:17.991Z,0.30
2022-11-19T02:49:45.354Z,0.30
2022-11-19T02:52:14.841Z,0.30
2022-11-19T02:54:41.585Z,0.40
2022-11-19T02:57:11.075Z,0.30
2022-11-19T02:59:58.809Z,0.50
2022-11-19T03:02:51.065Z,0.40
2022-11-19T03:05:22.043Z,0.50
2022-11-19T03:07:48.756Z,0.55
2022-11-19T03:10:18.206Z,0.70
2022-11-19T03:13:27.728Z,0.68
2022-11-19T03:16:14.642Z,0.50
2022-11-19T03:19:03.381Z,0.60
2022-11-19T03:21:46.814Z,0.60
2022-11-19T03:24:20.778Z,0.70
2022-11-19T03:27:02.925Z,0.80
2022-11-19T03:29:35.553Z,0.93
2022-11-19T03:32:08.921Z,0.82
2022-11-19T03:34:37.804Z,0.80
2022-11-19T03:37:07.420Z,1.00
2022-11-19T03:39:37.059Z,0.70
2022-11-19T03:42:08.786Z,0.88
2022-11-19T03:44:48.567Z,0.70
2022-11-19T03:47:26.182Z,0.70
2022-11-19T03:49:59.835Z,0.90
2022-11-19T03:52:26.707Z,1.00
2022-11-19T03:54:53.341Z,0.90
2022-11-19T03:57:23.713Z,1.05
2022-11-19T03:59:50.405Z,1.17
2022-11-19T04:02:17.791Z,1.13
2022-11-19T04:04:44.408Z,1.05
2022-11-19T04:07:18.609Z,1.25
2022-11-19T04:09:45.547Z,1.35
2022-11-19T04:12:17.991Z,1.08
2022-11-19T04:14:44.634Z,0.90
2022-11-19T04:17:11.623Z,0.82
2022-11-19T04:19:38.210Z,1.50
2022-11-19T04:22:04.784Z,0.88
2022-11-19T04:24:31.953Z,1.35
2022-11-19T04:26:58.627Z,1.30
2022-11-19T04:29:25.255Z,0.90
2022-11-19T04:31:52.002Z,1.40
2022-11-19T04:34:18.615Z,0.73
2022-11-19T04:36:45.842Z,1.65
2022-11-19T04:39:12.921Z,1.33
2022-11-19T04:41:40.741Z,1.08
2022-11-19T04:44:07.827Z,1.33
2022-11-19T04:46:34.604Z,0.98
2022-11-19T04:49:01.194Z,1.10
2022-11-19T04:51:27.864Z,0.90
2022-11-19T04:53:55.355Z,3.08
2022-11-19T04:56:21.982Z,1.73
2022-11-19T04:58:48.588Z,2.45
2022-11-19T05:01:15.310Z,2.55
2022-11-19T05:03:42.038Z,1.88
2022-11-19T05:06:08.923Z,1.73
2022-11-19T05:08:35.569Z,2.55
2022-11-19T05:11:02.116Z,1.35
2022-11-19T05:13:28.882Z,2.25
2022-11-19T05:15:55.647Z,3.25
2022-11-19T05:18:23.245Z,2.85
2022-11-19T05:20:49.802Z,3.67
2022-11-19T05:23:16.472Z,3.38
2022-11-19T05:25:43.413Z,3.90
2022-11-19T05:28:10.183Z,3.70
2022-11-19T05:30:36.747Z,4.85
2022-11-19T05:33:03.312Z,4.32
2022-11-19T05:35:29.948Z,4.28
2022-11-19T05:37:56.499Z,4.32
2022-11-19T05:40:23.181Z,4.43
2022-11-19T05:42:49.749Z,4.22
2022-11-19T05:45:16.555Z,4.00
2022-11-19T05:47:47.380Z,4.38
2022-11-19T05:50:15.317Z,3.92
2022-11-19T05:52:41.960Z,4.03
2022-11-19T05:55:08.868Z,3.90
2022-11-19T05:57:36.625Z,3.70
2022-11-19T06:00:05.247Z,5.05
2022-11-19T06:02:31.978Z,3.90
2022-11-19T06:04:58.640Z,5.43
2022-11-19T06:07:25.232Z,4.60
2022-11-19T06:09:51.849Z,3.20
2022-11-19T06:12:18.514Z,3.55
2022-11-19T06:14:45.162Z,3.35
2022-11-19T06:17:11.741Z,6.18
2022-11-19T06:19:38.308Z,6.20
2022-11-19T06:22:05.371Z,4.75
2022-11-19T06:24:32.289Z,4.95
2022-11-19T06:26:59.110Z,6.60
2022-11-19T06:29:25.831Z,4.70
2022-11-19T06:31:52.466Z,4.85
2022-11-19T06:34:19.225Z,4.45
2022-11-19T06:36:50.382Z,4.93
2022-11-19T06:39:17.507Z,5.03
2022-11-19T06:41:44.492Z,2.40
2022-11-19T06:44:11.206Z,2.08
2022-11-19T06:46:38.484Z,7.70
2022-11-19T06:49:06.042Z,5.88
2022-11-19T06:51:33.290Z,5.70
2022-11-19T06:53:59.894Z,6.03
2022-11-19T06:56:26.713Z,6.18
2022-11-19T06:58:58.174Z,5.95
2022-11-19T07:01:24.800Z,5.90
2022-11-19T07:03:51.917Z,5.72
2022-11-19T07:06:18.545Z,5.63
2022-11-19T07:08:45.156Z,5.88
2022-11-19T07:11:26.904Z,4.25
2022-11-19T07:13:57.550Z,4.00
2022-11-19T07:16:33.066Z,3.15
2022-11-19T07:19:01.916Z,3.70
2022-11-19T07:21:29.550Z,4.50
2022-11-19T07:23:57.043Z,4.90
2022-11-19T07:26:24.341Z,3.40
2022-11-19T07:28:50.938Z,4.03
2022-11-19T07:31:17.884Z,3.25
2022-11-19T07:33:44.842Z,2.95
2022-11-19T07:36:17.011Z,3.88
2022-11-19T07:38:45.478Z,3.20
2022-11-19T07:41:30.778Z,2.83
2022-11-19T07:43:57.392Z,3.80
2022-11-19T07:46:24.296Z,1.27
2022-11-19T07:48:54.952Z,3.00
2022-11-19T07:51:22.885Z,2.03
2022-11-19T07:53:50.118Z,2.45
2022-11-19T07:56:17.353Z,3.92
2022-11-19T07:58:44.085Z,3.17
2022-11-19T08:01:13.638Z,2.40
2022-11-19T08:03:42.801Z,2.13
2022-11-19T08:06:10.055Z,1.80
2022-11-19T08:08:36.651Z,2.28
2022-11-19T08:11:07.623Z,1.77
2022-11-19T08:13:35.291Z,1.75
2022-11-19T08:16:07.424Z,1.50
2022-11-19T08:18:34.122Z,1.83
2022-11-19T08:21:11.957Z,1.55
2022-11-19T08:23:39.459Z,1.45
2022-11-19T08:26:07.746Z,0.90
2022-11-19T08:28:34.729Z,1.98
2022-11-19T08:31:08.655Z,1.55
2022-11-19T08:33:36.146Z,1.38
2022-11-19T08:36:03.395Z,0.80
2022-11-19T08:38:33.318Z,2.15
2022-11-19T08:41:21.197Z,1.20
2022-11-19T08:43:47.710Z,1.23
2022-11-19T08:46:14.385Z,1.58
2022-11-19T08:48:41.060Z,1.70
2022-11-19T08:51:10.735Z,1.25
2022-11-19T08:53:37.625Z,1.30
2022-11-19T08:56:05.407Z,1.25
2022-11-19T08:58:32.096Z,1.42
2022-11-19T09:00:58.881Z,1.67
2022-11-19T09:03:25.864Z,1.50
2022-11-19T09:06:01.607Z,1.73
2022-11-19T09:08:29.162Z,1.65
2022-11-19T09:10:55.753Z,1.63
2022-11-19T09:13:22.461Z,0.90
2022-11-19T09:15:50.138Z,1.00
2022-11-19T09:18:16.841Z,1.10
2022-11-19T09:20:43.667Z,1.42
2022-11-19T09:23:10.368Z,1.20
2022-11-19T09:25:36.988Z,1.30
2022-11-19T09:28:03.790Z,1.60
2022-11-19T09:30:30.782Z,1.00
2022-11-19T09:32:59.586Z,1.38
2022-11-19T09:35:26.142Z,0.80
2022-11-19T09:37:52.878Z,0.90
2022-11-19T09:40:21.916Z,1.20
2022-11-19T09:43:15.828Z,1.42
2022-11-19T09:45:51.429Z,2.38
2022-11-19T09:48:25.713Z,2.33
2022-11-19T09:50:59.569Z,2.78
2022-11-19T09:53:33.314Z,3.58
2022-11-19T09:56:00.491Z,2.72
2022-11-19T09:58:40.193Z,0.80
2022-11-19T10:01:06.889Z,1.65
2022-11-19T10:03:34.143Z,2.08
2022-11-19T10:06:18.943Z,1.60
2022-11-19T10:09:07.543Z,1.00
2022-11-19T10:12:06.305Z,0.60
2022-11-19T10:15:02.975Z,0.60
2022-11-19T10:17:45.525Z,0.50
2022-11-19T10:20:39.913Z,0.50
2022-11-19T10:23:14.514Z,0.60
2022-11-19T10:25:50.059Z,0.60
2022-11-19T10:28:24.449Z,0.50
2022-11-19T10:30:55.448Z,0.40
2022-11-19T10:33:22.286Z,0.40
2022-11-19T10:35:54.522Z,0.50
2022-11-19T10:38:30.160Z,0.60
2022-11-19T10:41:13.036Z,0.60
2022-11-19T10:43:48.214Z,0.50
2022-11-19T10:46:21.240Z,0.50
2022-11-19T10:48:52.101Z,0.60
2022-11-19T10:51:23.482Z,0.60
2022-11-19T10:53:51.578Z,0.60
2022-11-19T10:56:22.403Z,0.52
2022-11-19T10:59:05.779Z,0.40
2022-11-19T11:01:34.156Z,0.50
2022-11-19T11:04:23.674Z,0.50
2022-11-19T11:06:53.279Z,0.60
2022-11-19T11:09:30.128Z,0.60
2022-11-19T11:12:17.633Z,0.50
2022-11-19T11:14:55.069Z,0.40
2022-11-19T11:17:27.731Z,0.82
2022-11-19T11:20:24.113Z,0.60
2022-11-19T11:23:02.917Z,0.80
2022-11-19T11:25:29.908Z,0.80
2022-11-19T11:28:07.906Z,0.88
2022-11-19T11:30:35.034Z,1.17
2022-11-19T11:33:28.466Z,1.40
2022-11-19T11:35:57.615Z,1.15
2022-11-19T11:38:26.963Z,0.70
2022-11-19T11:41:35.313Z,0.93
2022-11-19T11:44:01.791Z,0.60
2022-11-19T11:46:42.873Z,0.60
2022-11-19T11:49:24.411Z,0.60
2022-11-19T11:52:09.708Z,0.93
2022-11-19T11:54:55.670Z,0.60
2022-11-19T11:57:25.490Z,0.80
2022-11-19T11:59:52.148Z,0.85
2022-11-19T12:02:39.102Z,1.65
2022-11-19T12:05:15.016Z,0.70
2022-11-19T12:08:04.256Z,0.60
2022-11-19T12:10:55.427Z,0.50
2022-11-19T12:13:28.130Z,0.50
2022-11-19T12:16:05.201Z,0.50
2022-11-19T12:18:46.705Z,0.60
2022-11-19T12:21:41.355Z,0.40
2022-11-19T12:24:23.382Z,0.60
2022-11-19T12:27:02.483Z,0.65
2022-11-19T12:29:37.875Z,0.50
2022-11-19T12:32:19.399Z,0.80
2022-11-19T12:35:13.616Z,0.60
2022-11-19T12:37:58.990Z,0.57
2022-11-19T12:40:44.432Z,0.60
2022-11-19T12:43:41.211Z,0.70
2022-11-19T12:46:39.640Z,1.00
2022-11-19T12:49:21.862Z,0.77
2022-11-19T12:52:26.670Z,0.70
2022-11-19T12:55:19.573Z,0.60
2022-11-19T12:57:58.189Z,0.52
2022-11-19T13:00:29.077Z,1.00
2022-11-19T13:02:58.584Z,0.60
2022-11-19T13:05:52.959Z,0.50
2022-11-19T13:08:30.124Z,0.70
2022-11-19T13:11:09.250Z,0.90
2022-11-19T13:13:40.443Z,0.85
2022-11-19T13:16:16.430Z,0.70
2022-11-19T13:18:47.625Z,0.70
2022-11-19T13:21:47.639Z,0.90
2022-11-19T13:24:29.384Z,0.60
2022-11-19T13:27:01.545Z,0.70
2022-11-19T13:29:37.203Z,0.70
2022-11-19T13:32:10.528Z,1.00
2022-11-19T13:34:47.373Z,0.95
2022-11-19T13:37:35.625Z,1.10
2022-11-19T13:40:21.305Z,0.70
2022-11-19T13:43:31.173Z,0.80
2022-11-19T13:46:07.061Z,0.90
2022-11-19T13:48:43.212Z,1.08
2022-11-19T13:51:24.773Z,0.90
2022-11-19T13:53:51.765Z,0.85
2022-11-19T13:56:18.422Z,0.70
2022-11-19T13:58:51.448Z,0.93
2022-11-19T14:01:55.855Z,0.60
2022-11-19T14:04:37.519Z,0.73
2022-11-19T14:07:16.343Z,0.80
2022-11-19T14:10:24.536Z,0.80
2022-11-19T14:13:24.401Z,0.70
2022-11-19T14:16:29.500Z,0.85
2022-11-19T14:19:22.477Z,0.95
2022-11-19T14:22:15.078Z,0.85
2022-11-19T14:25:06.562Z,0.98
2022-11-19T14:27:34.424Z,1.10
2022-11-19T14:30:09.027Z,1.10
2022-11-19T14:32:48.130Z,1.52
2022-11-19T14:35:23.613Z,1.65
2022-11-19T14:37:53.988Z,2.15
2022-11-19T14:40:21.283Z,3.88
2022-11-19T14:43:18.714Z,3.35
2022-11-19T14:46:03.680Z,3.40
2022-11-19T14:48:47.501Z,4.43
2022-11-19T14:51:18.020Z,4.75
2022-11-19T14:54:14.756Z,4.05
2022-11-19T14:56:45.342Z,4.43
2022-11-19T14:59:14.711Z,4.15
2022-11-19T15:02:15.818Z,3.90
2022-11-19T15:04:51.222Z,5.25
2022-11-19T15:07:37.329Z,5.90
2022-11-19T15:10:10.229Z,5.35
2022-11-19T15:12:48.645Z,5.40
2022-11-19T15:15:21.319Z,4.68
2022-11-19T15:18:01.861Z,5.35
2022-11-19T15:20:50.399Z,5.78
2022-11-19T15:23:17.014Z,5.13
2022-11-19T15:26:03.348Z,5.30
2022-11-19T15:28:48.607Z,6.10
2022-11-19T15:31:36.547Z,6.28
2022-11-19T15:34:06.076Z,6.10
2022-11-19T15:36:39.796Z,6.00
2022-11-19T15:39:12.032Z,5.78
2022-11-19T15:42:00.405Z,6.53
2022-11-19T15:44:34.491Z,7.78
2022-11-19T15:47:05.827Z,6.97
2022-11-19T15:49:34.741Z,6.95
2022-11-19T15:52:17.309Z,6.20
2022-11-19T15:54:44.547Z,4.35
2022-11-19T15:57:17.269Z,5.65
2022-11-19T15:59:48.597Z,5.93
2022-11-19T16:02:42.671Z,7.47
2022-11-19T16:05:22.843Z,4.32
2022-11-19T16:07:51.481Z,6.55
2022-11-19T16:10:33.620Z,3.30
2022-11-19T16:13:20.804Z,4.95
2022-11-19T16:16:11.006Z,2.92
2022-11-19T16:18:51.816Z,3.35
2022-11-19T16:21:26.303Z,1.10
2022-11-19T16:24:12.647Z,1.35
2022-11-19T16:26:40.950Z,0.82
2022-11-19T16:29:12.654Z,2.33
2022-11-19T16:31:39.341Z,1.45
2022-11-19T16:34:05.910Z,5.07
2022-11-19T16:36:33.546Z,4.97
2022-11-19T16:39:00.188Z,5.63
2022-11-19T16:41:45.844Z,6.55
2022-11-19T16:44:16.056Z,4.85
2022-11-19T16:46:42.993Z,3.55
2022-11-19T16:49:32.218Z,3.92
2022-11-19T16:51:59.905Z,3.90
2022-11-19T16:54:54.371Z,4.13
2022-11-19T16:57:23.737Z,5.07
2022-11-19T16:59:53.924Z,5.05
2022-11-19T17:02:24.651Z,4.10
2022-11-19T17:04:55.548Z,5.35
2022-11-19T17:07:27.944Z,5.75
2022-11-19T17:10:13.209Z,4.32
2022-11-19T17:12:59.026Z,4.30
2022-11-19T17:15:33.362Z,3.20
2022-11-19T17:18:12.119Z,4.30
2022-11-19T17:20:38.651Z,3.97
2022-11-19T17:23:13.978Z,3.47
2022-11-19T17:25:51.924Z,5.50
2022-11-19T17:28:36.155Z,5.20
2022-11-19T17:31:06.452Z,5.25
2022-11-19T17:33:36.645Z,5.13
2022-11-19T17:36:03.772Z,4.90
2022-11-19T17:38:32.540Z,5.35
2022-11-19T17:41:05.192Z,6.00
2022-11-19T17:43:53.968Z,8.80
2022-11-19T17:46:22.015Z,8.25
2022-11-19T17:48:49.866Z,7.82
2022-11-19T17:51:22.078Z,6.70
2022-11-19T17:53:51.451Z,7.45
2022-11-19T17:56:29.180Z,7.55
2022-11-19T17:58:55.904Z,7.43
2022-11-19T18:01:22.966Z,6.45
2022-11-19T18:03:49.856Z,7.93
2022-11-19T18:06:17.881Z,8.80
2022-11-19T18:08:45.141Z,8.82
2022-11-19T18:11:15.436Z,9.07
2022-11-19T18:13:43.061Z,7.78
2022-11-19T18:16:15.146Z,8.45
2022-11-19T18:18:41.917Z,9.35
2022-11-19T18:21:13.153Z,9.10
2022-11-19T18:23:41.285Z,8.93
2022-11-19T18:26:16.646Z,9.55
2022-11-19T18:28:47.616Z,7.80
2022-11-19T18:31:19.709Z,9.60
2022-11-19T18:33:49.801Z,8.68
2022-11-19T18:36:17.015Z,10.45
2022-11-19T18:38:44.012Z,12.23
2022-11-19T18:41:12.229Z,12.95
2022-11-19T18:43:57.644Z,12.50
2022-11-19T18:46:24.417Z,13.85
2022-11-19T18:48:51.149Z,6.43
2022-11-19T18:51:17.947Z,7.07
2022-11-19T18:53:44.715Z,6.95
2022-11-19T18:56:19.097Z,7.30
2022-11-19T18:58:45.744Z,10.93
2022-11-19T19:01:13.156Z,9.45
2022-11-19T19:03:39.961Z,6.13
2022-11-19T19:06:08.437Z,5.93
2022-11-19T19:08:36.100Z,6.38
2022-11-19T19:11:24.962Z,7.40
2022-11-19T19:13:52.149Z,4.75
2022-11-19T19:16:19.128Z,5.22
2022-11-19T19:18:45.778Z,4.65
2022-11-19T19:21:16.974Z,4.00
2022-11-19T19:23:44.035Z,4.95
2022-11-19T19:26:12.537Z,4.28
2022-11-19T19:28:39.837Z,5.00
2022-11-19T19:31:07.267Z,4.15
2022-11-19T19:33:34.273Z,4.10
2022-11-19T19:36:04.493Z,3.72
2022-11-19T19:38:31.092Z,3.67
2022-11-19T19:41:10.431Z,4.05
2022-11-19T19:43:37.046Z,4.25
2022-11-19T19:46:09.173Z,4.03
2022-11-19T19:48:36.640Z,4.80
2022-11-19T19:51:03.981Z,4.30
2022-11-19T19:53:30.845Z,4.72
2022-11-19T19:56:18.077Z,4.70
2022-11-19T19:58:45.965Z,5.30
2022-11-19T20:01:15.449Z,6.18
2022-11-19T20:03:43.708Z,6.28
2022-11-19T20:06:12.405Z,6.10
2022-11-19T20:08:40.073Z,6.32
2022-11-19T20:11:09.497Z,6.15
2022-11-19T20:13:36.875Z,6.10
2022-11-19T20:16:13.240Z,6.60
2022-11-19T20:18:43.894Z,7.68
2022-11-19T20:21:13.425Z,8.65
2022-11-19T20:23:41.764Z,10.02
2022-11-19T20:26:15.124Z,11.52
2022-11-19T20:28:41.794Z,10.07
2022-11-19T20:31:10.156Z,11.13
2022-11-19T20:33:37.606Z,11.63
2022-11-19T20:36:05.453Z,12.02
2022-11-19T20:38:32.337Z,16.20
2022-11-19T20:41:04.640Z,18.02
2022-11-19T20:43:52.789Z,12.50
2022-11-19T20:46:21.393Z,18.60
2022-11-19T20:48:48.863Z,17.40
2022-11-19T20:51:19.971Z,20.08
2022-11-19T20:53:46.962Z,19.00
2022-11-19T20:56:14.532Z,19.70
2022-11-19T20:58:41.141Z,16.38
2022-11-19T21:01:10.498Z,13.48
2022-11-19T21:03:37.744Z,15.15
2022-11-19T21:06:06.738Z,15.20
2022-11-19T21:08:34.634Z,13.95
2022-11-19T21:11:04.378Z,12.32
2022-11-19T21:13:31.215Z,13.60
2022-11-19T21:15:59.351Z,14.77
2022-11-19T21:18:27.189Z,13.63
2022-11-19T21:21:01.886Z,13.10
2022-11-19T21:23:29.015Z,13.27
2022-11-19T21:26:05.866Z,12.50
2022-11-19T21:28:32.900Z,10.68
2022-11-19T21:31:00.168Z,10.00
2022-11-19T21:33:27.195Z,10.25
2022-11-19T21:35:58.433Z,10.75
2022-11-19T21:38:26.649Z,10.15
2022-11-19T21:40:55.687Z,9.20
2022-11-19T21:43:23.837Z,9.25
2022-11-19T21:45:50.702Z,9.05
2022-11-19T21:48:17.456Z,9.68
2022-11-19T21:50:44.259Z,10.75
2022-11-19T21:53:12.267Z,10.77
2022-11-19T21:55:41.553Z,8.25
2022-11-19T21:58:08.227Z,9.07
2022-11-19T22:00:34.917Z,9.40
2022-11-19T22:03:01.946Z,9.32
2022-11-19T22:05:28.627Z,10.48
2022-11-19T22:07:55.385Z,9.30
2022-11-19T22:10:22.024Z,9.48
2022-11-19T22:12:48.539Z,10.00
2022-11-19T22:15:15.122Z,9.73
2022-11-19T22:17:41.727Z,7.43
2022-11-19T22:20:08.635Z,9.85
2022-11-19T22:22:35.395Z,10.02
2022-11-19T22:25:02.078Z,7.35
2022-11-19T22:27:29.496Z,4.72
2022-11-19T22:29:56.729Z,4.63
2022-11-19T22:32:23.601Z,3.25
2022-11-19T22:34:50.185Z,2.80
2022-11-19T22:37:16.804Z,1.50
2022-11-19T22:39:44.051Z,0.77
2022-11-19T22:42:10.621Z,1.00
2022-11-19T22:44:37.259Z,3.38
2022-11-19T22:47:03.855Z,2.63
2022-11-19T22:49:30.449Z,1.45
2022-11-19T22:51:57.096Z,1.42
2022-11-19T22:54:23.653Z,0.82
2022-11-19T22:56:50.218Z,0.82
2022-11-19T22:59:18.095Z,0.70
2022-11-19T23:01:44.827Z,0.80
2022-11-19T23:04:14.932Z,0.40
2022-11-19T23:06:41.614Z,0.60
2022-11-19T23:09:08.580Z,0.60
2022-11-19T23:11:54.721Z,0.50
2022-11-19T23:14:21.442Z,0.55
2022-11-19T23:16:48.259Z,0.63
2022-11-19T23:19:15.033Z,0.60
2022-11-19T23:21:41.756Z,1.00
2022-11-19T23:24:09.912Z,0.52
2022-11-19T23:26:36.908Z,0.90
2022-11-19T23:29:04.510Z,0.50
2022-11-19T23:31:37.003Z,0.45
2022-11-19T23:34:04.963Z,0.50
2022-11-19T23:36:41.602Z,0.40
2022-11-19T23:39:14.685Z,0.50
2022-11-19T23:41:41.642Z,0.70
2022-11-19T23:44:08.501Z,0.60
2022-11-19T23:46:36.001Z,1.00
2022-11-19T23:49:03.904Z,0.35
2022-11-19T23:51:33.695Z,0.30
2022-11-19T23:54:00.613Z,0.20
2022-11-19T23:56:29.574Z,0.17
2022-11-19T23:58:56.244Z,0.20
